sensor_id;sensor_type;location;lat;lon;timestamp;pressure;altitude;pressure_sealevel;temperature;humidity
76998;BME280;65930;48.874;10.734;2022-12-29T00:01:03;95758.63;;;5.69;66.00
76998;BME280;65930;48.874;10.734;2022-12-29T00:03:49;95766.03;;;5.65;66.12
76998;BME280;65930;48.874;10.734;2022-12-29T00:06:17;95753.88;;;5.66;66.78
76998;BME280;65930;48.874;10.734;2022-12-29T00:08:45;95753.47;;;5.64;66.74
76998;BME280;65930;48.874;10.734;2022-12-29T00:11:15;95757.78;;;5.65;66.03
76998;BME280;65930;48.874;10.734;2022-12-29T00:13:45;95755.47;;;5.67;66.70
76998;BME280;65930;48.874;10.734;2022-12-29T00:16:33;95759.81;;;5.68;66.70
76998;BME280;65930;48.874;10.734;2022-12-29T00:19:04;95743.31;;;5.68;66.25
76998;BME280;65930;48.874;10.734;2022-12-29T00:21:32;95748.88;;;5.75;65.72
76998;BME280;65930;48.874;10.734;2022-12-29T00:24:29;95741.78;;;5.74;65.76
76998;BME280;65930;48.874;10.734;2022-12-29T00:27:15;95744.19;;;5.79;65.37
76998;BME280;65930;48.874;10.734;2022-12-29T00:30:04;95744.25;;;5.83;65.46
76998;BME280;65930;48.874;10.734;2022-12-29T00:32:55;95743.56;;;5.93;64.35
76998;BME280;65930;48.874;10.734;2022-12-29T00:35:46;95748.72;;;5.94;64.82
76998;BME280;65930;48.874;10.734;2022-12-29T00:38:16;95739.78;;;6.04;63.87
76998;BME280;65930;48.874;10.734;2022-12-29T00:41:01;95740.97;;;6.07;63.90
76998;BME280;65930;48.874;10.734;2022-12-29T00:43:47;95726.84;;;6.08;63.75
76998;BME280;65930;48.874;10.734;2022-12-29T00:46:34;95735.91;;;6.12;63.35
76998;BME280;65930;48.874;10.734;2022-12-29T00:49:05;95732.81;;;6.17;63.11
76998;BME280;65930;48.874;10.734;2022-12-29T00:51:52;95739.13;;;6.22;63.13
76998;BME280;65930;48.874;10.734;2022-12-29T00:54:20;95729.00;;;6.29;62.57
76998;BME280;65930;48.874;10.734;2022-12-29T00:56:50;95728.94;;;6.22;62.64
76998;BME280;65930;48.874;10.734;2022-12-29T00:59:19;95726.63;;;6.28;62.48
76998;BME280;65930;48.874;10.734;2022-12-29T01:01:47;95714.84;;;6.31;62.18
76998;BME280;65930;48.874;10.734;2022-12-29T01:04:17;95716.81;;;6.30;62.65
76998;BME280;65930;48.874;10.734;2022-12-29T01:06:45;95714.03;;;6.27;62.07
76998;BME280;65930;48.874;10.734;2022-12-29T01:09:13;95716.00;;;6.26;62.71
76998;BME280;65930;48.874;10.734;2022-12-29T01:11:59;95712.88;;;6.28;62.97
76998;BME280;65930;48.874;10.734;2022-12-29T01:14:27;95711.69;;;6.29;62.00
76998;BME280;65930;48.874;10.734;2022-12-29T01:16:55;95707.34;;;6.24;62.95
76998;BME280;65930;48.874;10.734;2022-12-29T01:19:25;95716.78;;;6.27;63.19
76998;BME280;65930;48.874;10.734;2022-12-29T01:21:53;95718.84;;;6.37;62.42
76998;BME280;65930;48.874;10.734;2022-12-29T01:24:22;95721.22;;;6.42;61.83
76998;BME280;65930;48.874;10.734;2022-12-29T01:26:50;95713.44;;;6.51;61.85
76998;BME280;65930;48.874;10.734;2022-12-29T01:29:18;95725.25;;;6.55;61.48
76998;BME280;65930;48.874;10.734;2022-12-29T01:31:46;95724.41;;;6.44;62.23
76998;BME280;65930;48.874;10.734;2022-12-29T01:34:16;95719.72;;;6.48;62.26
76998;BME280;65930;48.874;10.734;2022-12-29T01:36:46;95717.34;;;6.46;61.83
76998;BME280;65930;48.874;10.734;2022-12-29T01:39:14;95716.53;;;6.46;61.54
76998;BME280;65930;48.874;10.734;2022-12-29T01:41:42;95718.91;;;6.44;60.38
76998;BME280;65930;48.874;10.734;2022-12-29T01:44:49;95713.44;;;6.51;60.00
76998;BME280;65930;48.874;10.734;2022-12-29T01:47:29;95718.97;;;6.58;59.62
76998;BME280;65930;48.874;10.734;2022-12-29T01:50:04;95719.03;;;6.61;59.68
76998;BME280;65930;48.874;10.734;2022-12-29T01:52:37;95720.66;;;6.73;59.43
76998;BME280;65930;48.874;10.734;2022-12-29T01:55:08;95728.88;;;6.66;58.77
76998;BME280;65930;48.874;10.734;2022-12-29T01:57:42;95730.81;;;6.62;59.86
76998;BME280;65930;48.874;10.734;2022-12-29T02:00:13;95725.72;;;6.64;60.12
76998;BME280;65930;48.874;10.734;2022-12-29T02:02:48;95725.72;;;6.64;60.38
76998;BME280;65930;48.874;10.734;2022-12-29T02:05:25;95725.22;;;6.48;61.35
76998;BME280;65930;48.874;10.734;2022-12-29T02:07:56;95724.41;;;6.44;61.28
76998;BME280;65930;48.874;10.734;2022-12-29T02:10:26;95721.16;;;6.35;61.37
76998;BME280;65930;48.874;10.734;2022-12-29T02:12:56;95727.09;;;6.37;61.08
76998;BME280;65930;48.874;10.734;2022-12-29T02:15:37;95718.03;;;6.36;61.14
76998;BME280;65930;48.874;10.734;2022-12-29T02:18:22;95722.28;;;6.27;61.25
76998;BME280;65930;48.874;10.734;2022-12-29T02:27:26;95709.56;;;6.08;62.03
76998;BME280;65930;48.874;10.734;2022-12-29T02:30:05;95717.81;;;6.11;61.80
76998;BME280;65930;48.874;10.734;2022-12-29T02:32:43;95716.28;;;6.10;62.24
76998;BME280;65930;48.874;10.734;2022-12-29T02:35:25;95705.31;;;6.17;61.51
76998;BME280;65930;48.874;10.734;2022-12-29T02:38:13;95702.63;;;6.25;61.12
76998;BME280;65930;48.874;10.734;2022-12-29T02:40:51;95712.38;;;6.15;61.61
76998;BME280;65930;48.874;10.734;2022-12-29T02:43:26;95706.13;;;6.22;61.07
76998;BME280;65930;48.874;10.734;2022-12-29T02:46:07;95697.41;;;6.12;61.88
76998;BME280;65930;48.874;10.734;2022-12-29T02:48:45;95695.19;;;6.29;61.20
76998;BME280;65930;48.874;10.734;2022-12-29T02:51:20;95696.25;;;6.13;61.08
76998;BME280;65930;48.874;10.734;2022-12-29T02:53:52;95692.03;;;6.27;61.10
76998;BME280;65930;48.874;10.734;2022-12-29T02:56:39;95681.78;;;6.24;61.06
76998;BME280;65930;48.874;10.734;2022-12-29T02:59:08;95682.97;;;6.26;61.82
76998;BME280;65930;48.874;10.734;2022-12-29T03:01:55;95683.34;;;6.21;61.44
76998;BME280;65930;48.874;10.734;2022-12-29T03:05:17;95678.97;;;6.16;62.26
76998;BME280;65930;48.874;10.734;2022-12-29T03:07:58;95677.84;;;6.21;62.07
76998;BME280;65930;48.874;10.734;2022-12-29T03:10:37;95680.16;;;6.15;62.00
76998;BME280;65930;48.874;10.734;2022-12-29T03:13:16;95673.06;;;6.11;61.54
76998;BME280;65930;48.874;10.734;2022-12-29T03:16:14;95662.78;;;6.04;63.28
76998;BME280;65930;48.874;10.734;2022-12-29T03:18:55;95662.09;;;6.14;61.60
76998;BME280;65930;48.874;10.734;2022-12-29T03:21:32;95650.34;;;6.21;61.82
76998;BME280;65930;48.874;10.734;2022-12-29T03:24:22;95655.41;;;6.15;61.14
76998;BME280;65930;48.874;10.734;2022-12-29T03:26:56;95663.59;;;6.08;60.54
76998;BME280;65930;48.874;10.734;2022-12-29T03:29:29;95659.78;;;6.20;60.37
76998;BME280;65930;48.874;10.734;2022-12-29T03:32:01;95657.78;;;6.20;61.83
76998;BME280;65930;48.874;10.734;2022-12-29T03:34:33;95666.88;;;6.25;60.70
76998;BME280;65930;48.874;10.734;2022-12-29T03:37:06;95661.34;;;6.21;60.08
76998;BME280;65930;48.874;10.734;2022-12-29T03:39:36;95659.34;;;6.14;60.82
76998;BME280;65930;48.874;10.734;2022-12-29T03:42:11;95661.69;;;6.16;60.69
76998;BME280;65930;48.874;10.734;2022-12-29T03:44:43;95662.94;;;6.26;60.18
76998;BME280;65930;48.874;10.734;2022-12-29T03:47:13;95657.38;;;6.15;60.78
76998;BME280;65930;48.874;10.734;2022-12-29T03:49:42;95655.00;;;6.13;60.20
76998;BME280;65930;48.874;10.734;2022-12-29T03:52:12;95656.59;;;6.14;59.10
76998;BME280;65930;48.874;10.734;2022-12-29T03:54:40;95662.53;;;6.20;60.00
76998;BME280;65930;48.874;10.734;2022-12-29T03:57:08;95660.47;;;6.10;59.90
76998;BME280;65930;48.874;10.734;2022-12-29T03:59:36;95658.16;;;6.15;59.26
76998;BME280;65930;48.874;10.734;2022-12-29T04:02:04;95662.91;;;6.22;58.53
76998;BME280;65930;48.874;10.734;2022-12-29T04:04:33;95655.09;;;6.28;59.06
76998;BME280;65930;48.874;10.734;2022-12-29T04:07:01;95652.34;;;6.28;59.54
76998;BME280;65930;48.874;10.734;2022-12-29T04:09:30;95663.00;;;6.33;58.29
76998;BME280;65930;48.874;10.734;2022-12-29T04:11:58;95655.09;;;6.28;58.40
76998;BME280;65930;48.874;10.734;2022-12-29T04:14:26;95644.56;;;6.37;58.22
76998;BME280;65930;48.874;10.734;2022-12-29T04:16:54;95648.53;;;6.43;57.97
76998;BME280;65930;48.874;10.734;2022-12-29T04:19:22;95645.72;;;6.36;58.29
76998;BME280;65930;48.874;10.734;2022-12-29T04:21:50;95637.09;;;6.34;58.58
76998;BME280;65930;48.874;10.734;2022-12-29T04:24:18;95635.53;;;6.40;59.33
76998;BME280;65930;48.874;10.734;2022-12-29T04:26:48;95641.00;;;6.33;58.27
76998;BME280;65930;48.874;10.734;2022-12-29T04:29:16;95640.28;;;6.43;58.02
76998;BME280;65930;48.874;10.734;2022-12-29T04:31:44;95645.72;;;6.36;57.87
76998;BME280;65930;48.874;10.734;2022-12-29T04:34:12;95642.16;;;6.32;58.45
76998;BME280;65930;48.874;10.734;2022-12-29T04:36:41;95639.41;;;6.32;59.21
76998;BME280;65930;48.874;10.734;2022-12-29T04:39:08;95632.31;;;6.31;57.74
76998;BME280;65930;48.874;10.734;2022-12-29T04:41:37;95638.63;;;6.35;57.96
76998;BME280;65930;48.874;10.734;2022-12-29T04:44:07;95636.69;;;6.35;57.57
76998;BME280;65930;48.874;10.734;2022-12-29T04:46:34;95645.00;;;6.42;58.06
76998;BME280;65930;48.874;10.734;2022-12-29T04:49:04;95632.75;;;6.33;58.85
76998;BME280;65930;48.874;10.734;2022-12-29T04:51:35;95626.53;;;6.43;58.55
76998;BME280;65930;48.874;10.734;2022-12-29T04:54:03;95623.31;;;6.34;58.50
76998;BME280;65930;48.874;10.734;2022-12-29T04:56:31;95626.81;;;6.31;59.34
76998;BME280;65930;48.874;10.734;2022-12-29T04:58:59;95628.44;;;6.35;59.23
76998;BME280;65930;48.874;10.734;2022-12-29T05:01:28;95631.50;;;6.27;59.76
76998;BME280;65930;48.874;10.734;2022-12-29T05:03:56;95625.72;;;6.39;59.84
76998;BME280;65930;48.874;10.734;2022-12-29T05:06:25;95621.31;;;6.31;59.65
76998;BME280;65930;48.874;10.734;2022-12-29T05:08:53;95632.28;;;6.20;59.02
76998;BME280;65930;48.874;10.734;2022-12-29T05:11:21;95631.50;;;6.27;58.81
76998;BME280;65930;48.874;10.734;2022-12-29T05:13:49;95624.84;;;6.28;59.87
76998;BME280;65930;48.874;10.734;2022-12-29T05:16:17;95622.88;;;6.25;59.49
76998;BME280;65930;48.874;10.734;2022-12-29T05:18:46;95629.91;;;6.22;59.57
76998;BME280;65930;48.874;10.734;2022-12-29T05:21:14;95633.03;;;6.17;60.04
76998;BME280;65930;48.874;10.734;2022-12-29T05:23:42;95642.41;;;6.09;60.14
76998;BME280;65930;48.874;10.734;2022-12-29T05:26:10;95644.25;;;5.98;60.06
76998;BME280;65930;48.874;10.734;2022-12-29T05:28:38;95650.16;;;5.96;61.00
76998;BME280;65930;48.874;10.734;2022-12-29T05:31:06;95650.97;;;5.97;61.08
76998;BME280;65930;48.874;10.734;2022-12-29T05:33:34;95651.78;;;6.01;61.02
76998;BME280;65930;48.874;10.734;2022-12-29T05:36:06;95652.50;;;5.98;61.30
76998;BME280;65930;48.874;10.734;2022-12-29T05:38:35;95646.22;;;5.97;60.09
76998;BME280;65930;48.874;10.734;2022-12-29T05:41:04;95642.28;;;5.95;61.59
76998;BME280;65930;48.874;10.734;2022-12-29T05:43:31;95648.50;;;5.88;61.42
76998;BME280;65930;48.874;10.734;2022-12-29T05:46:00;95653.69;;;5.97;61.19
76998;BME280;65930;48.874;10.734;2022-12-29T05:48:28;95657.22;;;5.97;61.23
76998;BME280;65930;48.874;10.734;2022-12-29T05:51:05;95654.75;;;5.85;62.21
76998;BME280;65930;48.874;10.734;2022-12-29T05:53:33;95654.75;;;5.85;61.62
76998;BME280;65930;48.874;10.734;2022-12-29T05:56:01;95660.34;;;5.92;62.17
76998;BME280;65930;48.874;10.734;2022-12-29T05:58:29;95658.78;;;5.95;62.32
76998;BME280;65930;48.874;10.734;2022-12-29T06:00:57;95663.31;;;5.80;62.40
76998;BME280;65930;48.874;10.734;2022-12-29T06:03:26;95650.38;;;5.81;62.94
76998;BME280;65930;48.874;10.734;2022-12-29T06:05:54;95650.81;;;5.86;62.79
76998;BME280;65930;48.874;10.734;2022-12-29T06:08:23;95657.81;;;5.80;62.68
76998;BME280;65930;48.874;10.734;2022-12-29T06:10:51;95650.75;;;5.79;63.01
76998;BME280;65930;48.874;10.734;2022-12-29T06:13:19;95653.16;;;5.84;62.88
76998;BME280;65930;48.874;10.734;2022-12-29T06:15:48;95657.81;;;5.80;62.74
76998;BME280;65930;48.874;10.734;2022-12-29T06:18:16;95661.00;;;5.82;63.05
76998;BME280;65930;48.874;10.734;2022-12-29T06:20:46;95656.31;;;5.86;63.43
76998;BME280;65930;48.874;10.734;2022-12-29T06:23:14;95661.91;;;5.93;63.12
76998;BME280;65930;48.874;10.734;2022-12-29T06:25:44;95654.06;;;5.95;63.33
76998;BME280;65930;48.874;10.734;2022-12-29T06:28:13;95654.88;;;5.99;62.86
76998;BME280;65930;48.874;10.734;2022-12-29T06:30:43;95658.09;;;6.08;63.41
76998;BME280;65930;48.874;10.734;2022-12-29T06:33:11;95657.38;;;6.15;63.46
76998;BME280;65930;48.874;10.734;2022-12-29T06:35:40;95652.28;;;6.20;62.59
76998;BME280;65930;48.874;10.734;2022-12-29T06:38:09;95648.78;;;6.24;63.03
76998;BME280;65930;48.874;10.734;2022-12-29T06:40:37;95644.47;;;6.23;63.42
76998;BME280;65930;48.874;10.734;2022-12-29T06:43:07;95643.28;;;6.20;63.47
76998;BME280;65930;48.874;10.734;2022-12-29T06:45:37;95637.81;;;6.31;62.66
76998;BME280;65930;48.874;10.734;2022-12-29T06:48:06;95649.28;;;6.40;62.79
76998;BME280;65930;48.874;10.734;2022-12-29T06:50:35;95652.38;;;6.31;63.57
76998;BME280;65930;48.874;10.734;2022-12-29T06:53:03;95646.50;;;6.33;63.44
76998;BME280;65930;48.874;10.734;2022-12-29T06:55:31;95659.09;;;6.34;63.37
76998;BME280;65930;48.874;10.734;2022-12-29T06:57:59;95634.78;;;6.43;62.97
76998;BME280;65930;48.874;10.734;2022-12-29T07:00:29;95654.41;;;6.38;63.57
76998;BME280;65930;48.874;10.734;2022-12-29T07:02:57;95652.78;;;6.33;63.26
76998;BME280;65930;48.874;10.734;2022-12-29T07:05:26;95657.50;;;6.33;63.62
76998;BME280;65930;48.874;10.734;2022-12-29T07:07:54;95647.31;;;6.37;63.71
76998;BME280;65930;48.874;10.734;2022-12-29T07:10:25;95657.50;;;6.33;63.73
76998;BME280;65930;48.874;10.734;2022-12-29T07:12:53;95648.09;;;6.34;64.11
76998;BME280;65930;48.874;10.734;2022-12-29T07:15:21;95647.31;;;6.40;64.26
76998;BME280;65930;48.874;10.734;2022-12-29T07:17:50;95657.59;;;6.43;63.97
76998;BME280;65930;48.874;10.734;2022-12-29T07:20:18;95653.69;;;6.48;64.04
76998;BME280;65930;48.874;10.734;2022-12-29T07:22:52;95656.13;;;6.63;64.04
76998;BME280;65930;48.874;10.734;2022-12-29T07:25:20;95649.44;;;6.61;64.28
76998;BME280;65930;48.874;10.734;2022-12-29T07:27:49;95654.97;;;6.68;64.13
76998;BME280;65930;48.874;10.734;2022-12-29T07:30:17;95656.97;;;6.71;63.91
76998;BME280;65930;48.874;10.734;2022-12-29T07:32:45;95649.06;;;6.66;64.39
76998;BME280;65930;48.874;10.734;2022-12-29T07:35:15;95658.50;;;6.72;64.54
76998;BME280;65930;48.874;10.734;2022-12-29T07:37:43;95654.22;;;6.75;64.17
76998;BME280;65930;48.874;10.734;2022-12-29T07:40:11;95653.00;;;6.72;64.73
76998;BME280;65930;48.874;10.734;2022-12-29T07:42:40;95654.94;;;6.61;64.68
76998;BME280;65930;48.874;10.734;2022-12-29T07:45:17;95656.09;;;6.60;65.06
76998;BME280;65930;48.874;10.734;2022-12-29T07:47:47;95664.31;;;6.53;65.39
76998;BME280;65930;48.874;10.734;2022-12-29T07:50:17;95663.13;;;6.54;65.77
76998;BME280;65930;48.874;10.734;2022-12-29T07:52:46;95663.13;;;6.50;65.54
76998;BME280;65930;48.874;10.734;2022-12-29T07:55:15;95670.22;;;6.55;66.26
76998;BME280;65930;48.874;10.734;2022-12-29T07:57:43;95660.81;;;6.63;66.33
76998;BME280;65930;48.874;10.734;2022-12-29T08:00:12;95662.84;;;6.70;65.92
76998;BME280;65930;48.874;10.734;2022-12-29T08:02:40;95658.16;;;6.77;66.17
76998;BME280;65930;48.874;10.734;2022-12-29T08:05:08;95668.81;;;6.82;65.98
76998;BME280;65930;48.874;10.734;2022-12-29T08:07:38;95659.38;;;6.83;66.22
76998;BME280;65930;48.874;10.734;2022-12-29T08:10:10;95664.88;;;6.83;66.28
76998;BME280;65930;48.874;10.734;2022-12-29T08:12:39;95665.66;;;6.80;66.79
76998;BME280;65930;48.874;10.734;2022-12-29T08:15:09;95665.63;;;6.77;66.89
76998;BME280;65930;48.874;10.734;2022-12-29T08:17:37;95672.34;;;6.83;66.32
76998;BME280;65930;48.874;10.734;2022-12-29T08:20:07;95678.28;;;6.88;66.82
76998;BME280;65930;48.874;10.734;2022-12-29T08:22:37;95685.75;;;6.88;66.61
76998;BME280;65930;48.874;10.734;2022-12-29T08:25:06;95682.56;;;6.82;67.12
76998;BME280;65930;48.874;10.734;2022-12-29T08:27:34;95679.84;;;6.86;66.94
76998;BME280;65930;48.874;10.734;2022-12-29T08:30:03;95683.78;;;6.88;66.92
76998;BME280;65930;48.874;10.734;2022-12-29T08:32:31;95678.28;;;6.95;67.09
76998;BME280;65930;48.874;10.734;2022-12-29T08:34:59;95680.66;;;6.93;66.92
76998;BME280;65930;48.874;10.734;2022-12-29T08:37:27;95682.28;;;7.01;67.49
76998;BME280;65930;48.874;10.734;2022-12-29T08:39:58;95676.00;;;7.04;66.85
76998;BME280;65930;48.874;10.734;2022-12-29T08:42:30;95681.56;;;7.19;66.47
76998;BME280;65930;48.874;10.734;2022-12-29T08:44:58;95691.03;;;7.28;67.00
76998;BME280;65930;48.874;10.734;2022-12-29T08:47:27;95680.06;;;7.32;66.96
76998;BME280;65930;48.874;10.734;2022-12-29T08:49:55;95674.53;;;7.39;66.91
76998;BME280;65930;48.874;10.734;2022-12-29T08:52:23;95676.94;;;7.47;66.59
76998;BME280;65930;48.874;10.734;2022-12-29T08:54:51;95679.28;;;7.42;66.49
76998;BME280;65930;48.874;10.734;2022-12-29T08:57:21;95679.69;;;7.47;66.46
76998;BME280;65930;48.874;10.734;2022-12-29T08:59:49;95676.97;;;7.51;66.34
76998;BME280;65930;48.874;10.734;2022-12-29T09:02:17;95685.63;;;7.49;66.48
76998;BME280;65930;48.874;10.734;2022-12-29T09:04:50;95681.66;;;7.43;66.17
76998;BME280;65930;48.874;10.734;2022-12-29T09:07:18;95681.63;;;7.36;66.19
76998;BME280;65930;48.874;10.734;2022-12-29T09:09:46;95672.59;;;7.43;66.12
76998;BME280;65930;48.874;10.734;2022-12-29T09:12:15;95673.00;;;7.45;65.91
76998;BME280;65930;48.874;10.734;2022-12-29T09:14:45;95682.06;;;7.45;66.33
76998;BME280;65930;48.874;10.734;2022-12-29T09:17:13;95681.31;;;7.59;65.60
76998;BME280;65930;48.874;10.734;2022-12-29T09:19:59;95680.13;;;7.60;65.43
76998;BME280;65930;48.874;10.734;2022-12-29T09:22:27;95675.41;;;7.71;65.16
76998;BME280;65930;48.874;10.734;2022-12-29T09:24:55;95687.28;;;7.79;64.29
76998;BME280;65930;48.874;10.734;2022-12-29T09:27:23;95677.44;;;7.88;64.71
76998;BME280;65930;48.874;10.734;2022-12-29T09:29:55;95682.56;;;8.01;63.41
76998;BME280;65930;48.874;10.734;2022-12-29T09:32:24;95684.13;;;8.05;63.46
76998;BME280;65930;48.874;10.734;2022-12-29T09:34:59;95684.53;;;8.11;63.40
76998;BME280;65930;48.874;10.734;2022-12-29T09:37:27;95693.22;;;8.20;63.04
76998;BME280;65930;48.874;10.734;2022-12-29T09:39:55;95687.69;;;8.23;63.10
76998;BME280;65930;48.874;10.734;2022-12-29T09:42:29;95685.34;;;8.25;62.90
76998;BME280;65930;48.874;10.734;2022-12-29T09:45:11;95681.78;;;8.25;62.31
76998;BME280;65930;48.874;10.734;2022-12-29T09:47:44;95676.28;;;8.25;62.12
76998;BME280;65930;48.874;10.734;2022-12-29T09:50:21;95686.50;;;8.28;61.77
76998;BME280;65930;48.874;10.734;2022-12-29T09:52:58;95660.91;;;8.38;62.39
76998;BME280;65930;48.874;10.734;2022-12-29T09:55:50;95674.69;;;8.52;61.87
76998;BME280;65930;48.874;10.734;2022-12-29T09:58:26;95660.09;;;8.62;60.91
76998;BME280;65930;48.874;10.734;2022-12-29T10:01:04;95660.47;;;8.75;61.65
76998;BME280;65930;48.874;10.734;2022-12-29T10:03:45;95664.38;;;8.77;61.68
76998;BME280;65930;48.874;10.734;2022-12-29T10:06:19;95664.41;;;8.81;61.39
76998;BME280;65930;48.874;10.734;2022-12-29T10:09:01;95653.34;;;8.81;61.46
76998;BME280;65930;48.874;10.734;2022-12-29T10:11:48;95658.09;;;8.77;61.60
76998;BME280;65930;48.874;10.734;2022-12-29T10:14:33;95666.78;;;8.75;61.51
76998;BME280;65930;48.874;10.734;2022-12-29T10:17:20;95655.34;;;8.66;61.96
76998;BME280;65930;48.874;10.734;2022-12-29T10:20:02;95647.06;;;8.66;61.92
76998;BME280;65930;48.874;10.734;2022-12-29T10:22:45;95652.19;;;8.71;62.41
76998;BME280;65930;48.874;10.734;2022-12-29T10:25:19;95656.53;;;8.65;62.30
76998;BME280;65930;48.874;10.734;2022-12-29T10:27:57;95653.38;;;8.63;62.87
76998;BME280;65930;48.874;10.734;2022-12-29T10:30:28;95656.16;;;8.67;62.55
76998;BME280;65930;48.874;10.734;2022-12-29T10:32:58;95654.53;;;8.69;62.52
76998;BME280;65930;48.874;10.734;2022-12-29T10:35:34;95648.63;;;8.74;62.93
76998;BME280;65930;48.874;10.734;2022-12-29T10:38:15;95651.75;;;8.83;62.65
76998;BME280;65930;48.874;10.734;2022-12-29T10:40:53;95642.25;;;8.92;62.25
76998;BME280;65930;48.874;10.734;2022-12-29T10:43:27;95638.66;;;9.09;62.42
76998;BME280;65930;48.874;10.734;2022-12-29T10:46:00;95644.47;;;9.32;61.78
76998;BME280;65930;48.874;10.734;2022-12-29T10:48:33;95634.16;;;9.47;61.68
76998;BME280;65930;48.874;10.734;2022-12-29T10:51:05;95617.50;;;9.54;61.23
76998;BME280;65930;48.874;10.734;2022-12-29T10:53:40;95628.59;;;9.50;61.27
76998;BME280;65930;48.874;10.734;2022-12-29T10:56:21;95636.06;;;9.53;61.66
76998;BME280;65930;48.874;10.734;2022-12-29T10:58:55;95628.53;;;9.57;61.73
76998;BME280;65930;48.874;10.734;2022-12-29T11:01:34;95617.91;;;9.56;61.68
76998;BME280;65930;48.874;10.734;2022-12-29T11:04:22;95629.25;;;9.68;61.53
76998;BME280;65930;48.874;10.734;2022-12-29T11:06:56;95621.31;;;9.78;61.64
76998;BME280;65930;48.874;10.734;2022-12-29T11:09:28;95614.94;;;9.81;61.86
76998;BME280;65930;48.874;10.734;2022-12-29T11:12:22;95609.09;;;9.75;62.48
76998;BME280;65930;48.874;10.734;2022-12-29T11:15:13;95618.22;;;9.61;62.33
76998;BME280;65930;48.874;10.734;2022-12-29T11:17:46;95624.56;;;9.62;62.00
76998;BME280;65930;48.874;10.734;2022-12-29T11:20:32;95619.00;;;9.69;62.25
76998;BME280;65930;48.874;10.734;2022-12-29T11:23:02;95613.50;;;9.65;62.57
76998;BME280;65930;48.874;10.734;2022-12-29T11:25:31;95605.56;;;9.67;62.52
76998;BME280;65930;48.874;10.734;2022-12-29T11:28:02;95620.19;;;9.68;62.58
76998;BME280;65930;48.874;10.734;2022-12-29T11:30:31;95620.56;;;9.66;62.76
76998;BME280;65930;48.874;10.734;2022-12-29T11:33:03;95621.00;;;9.61;63.12
76998;BME280;65930;48.874;10.734;2022-12-29T11:35:38;95636.81;;;9.61;63.19
76998;BME280;65930;48.874;10.734;2022-12-29T11:38:19;95629.28;;;9.61;63.15
76998;BME280;65930;48.874;10.734;2022-12-29T11:40:49;95621.00;;;9.61;63.92
76998;BME280;65930;48.874;10.734;2022-12-29T11:43:27;95619.81;;;9.62;63.74
76998;BME280;65930;48.874;10.734;2022-12-29T11:46:01;95602.44;;;9.65;63.33
76998;BME280;65930;48.874;10.734;2022-12-29T11:48:38;95602.44;;;9.65;63.84
76998;BME280;65930;48.874;10.734;2022-12-29T11:51:10;95602.81;;;9.64;63.93
76998;BME280;65930;48.874;10.734;2022-12-29T11:53:44;95600.84;;;9.64;63.72
76998;BME280;65930;48.874;10.734;2022-12-29T11:56:16;95604.81;;;9.63;63.89
76998;BME280;65930;48.874;10.734;2022-12-29T11:58:45;95601.59;;;9.68;63.99
76998;BME280;65930;48.874;10.734;2022-12-29T12:01:20;95612.28;;;9.66;64.09
76998;BME280;65930;48.874;10.734;2022-12-29T12:03:58;95598.44;;;9.66;64.37
76998;BME280;65930;48.874;10.734;2022-12-29T12:06:35;95607.50;;;9.70;63.87
76998;BME280;65930;48.874;10.734;2022-12-29T12:09:13;95610.28;;;9.70;64.11
76998;BME280;65930;48.874;10.734;2022-12-29T12:11:43;95612.63;;;9.72;64.12
76998;BME280;65930;48.874;10.734;2022-12-29T12:14:36;95615.75;;;9.78;63.74
76998;BME280;65930;48.874;10.734;2022-12-29T12:17:12;95609.44;;;9.77;63.81
76998;BME280;65930;48.874;10.734;2022-12-29T12:19:49;95597.59;;;9.77;64.05
76998;BME280;65930;48.874;10.734;2022-12-29T12:22:29;95599.19;;;9.74;64.25
76998;BME280;65930;48.874;10.734;2022-12-29T12:25:03;95586.53;;;9.77;64.28
76998;BME280;65930;48.874;10.734;2022-12-29T12:27:41;95590.44;;;9.83;64.06
76998;BME280;65930;48.874;10.734;2022-12-29T12:30:16;95591.59;;;9.89;64.01
76998;BME280;65930;48.874;10.734;2022-12-29T12:32:50;95584.84;;;9.90;64.19
76998;BME280;65930;48.874;10.734;2022-12-29T12:35:31;95585.59;;;9.94;63.73
76998;BME280;65930;48.874;10.734;2022-12-29T12:38:20;95588.81;;;9.89;64.16
76998;BME280;65930;48.874;10.734;2022-12-29T12:41:05;95588.81;;;9.89;64.55
76998;BME280;65930;48.874;10.734;2022-12-29T12:43:44;95578.94;;;9.88;64.46
76998;BME280;65930;48.874;10.734;2022-12-29T12:49:51;95590.00;;;9.88;64.37
76998;BME280;65930;48.874;10.734;2022-12-29T12:52:35;95588.88;;;9.82;64.42
76998;BME280;65930;48.874;10.734;2022-12-29T12:55:27;95587.59;;;9.90;64.65
76998;BME280;65930;48.874;10.734;2022-12-29T12:58:11;95594.75;;;9.87;64.92
76998;BME280;65930;48.874;10.734;2022-12-29T13:01:00;95596.81;;;9.80;65.85
76998;BME280;65930;48.874;10.734;2022-12-29T13:03:53;95595.63;;;9.77;66.15
76998;BME280;65930;48.874;10.734;2022-12-29T13:06:39;95596.44;;;9.74;66.88
76998;BME280;65930;48.874;10.734;2022-12-29T13:09:32;95590.53;;;9.68;67.01
76998;BME280;65930;48.874;10.734;2022-12-29T13:12:22;95592.16;;;9.62;67.87
76998;BME280;65930;48.874;10.734;2022-12-29T13:15:08;95585.44;;;9.63;67.67
76998;BME280;65930;48.874;10.734;2022-12-29T13:17:47;95598.44;;;9.66;66.88
76998;BME280;65930;48.874;10.734;2022-12-29T13:20:28;95585.78;;;9.72;66.65
76998;BME280;65930;48.874;10.734;2022-12-29T13:23:07;95587.81;;;9.65;67.04
76998;BME280;65930;48.874;10.734;2022-12-29T13:25:51;95589.72;;;9.75;65.90
76998;BME280;65930;48.874;10.734;2022-12-29T13:28:30;95590.13;;;9.73;66.43
76998;BME280;65930;48.874;10.734;2022-12-29T13:31:10;95601.94;;;9.78;65.55
76998;BME280;65930;48.874;10.734;2022-12-29T13:33:51;95595.25;;;9.75;66.25
76998;BME280;65930;48.874;10.734;2022-12-29T13:36:27;95602.72;;;9.78;65.94
76998;BME280;65930;48.874;10.734;2022-12-29T13:39:04;95598.00;;;9.79;65.59
76998;BME280;65930;48.874;10.734;2022-12-29T13:41:41;95602.34;;;9.76;65.46
76998;BME280;65930;48.874;10.734;2022-12-29T13:44:18;95595.22;;;9.79;66.09